createdAt,value
2023-05-02T00:00:49.798Z,102139.31
2023-05-02T00:03:17.449Z,102137.78
2023-05-02T00:05:44.465Z,102128.34
2023-05-02T00:08:12.221Z,102132.75
2023-05-02T00:10:38.927Z,102131.81
2023-05-02T00:13:06.468Z,102130.97
2023-05-02T00:15:32.899Z,102130.97
2023-05-02T00:18:00.935Z,102130.03
2023-05-02T00:20:27.407Z,102133.50
2023-05-02T00:22:55.775Z,102136.22
2023-05-02T00:25:22.185Z,102131.91
2023-05-02T00:27:50.980Z,102138.00
2023-05-02T00:30:18.343Z,102138.06
2023-05-02T00:32:44.852Z,102142.47
2023-05-02T00:35:11.507Z,102138.84
2023-05-02T00:37:37.926Z,102139.69
2023-05-02T00:40:05.175Z,102140.63
2023-05-02T00:42:34.647Z,102141.25
2023-05-02T00:45:01.050Z,102138.63
2023-05-02T00:47:27.597Z,102134.34
2023-05-02T00:49:54.024Z,102147.56
2023-05-02T00:52:20.848Z,102151.97
2023-05-02T00:54:47.409Z,102154.75
2023-05-02T00:57:13.899Z,102150.53
2023-05-02T00:59:40.562Z,102154.00
2023-05-02T01:02:29.662Z,102159.44
2023-05-02T01:05:14.906Z,102166.38
2023-05-02T01:07:54.342Z,102171.72
2023-05-02T01:10:34.442Z,102169.94
2023-05-02T01:13:07.195Z,102169.00
2023-05-02T01:15:37.562Z,102161.88
2023-05-02T01:18:06.486Z,102159.06
2023-05-02T01:20:36.585Z,102171.34
2023-05-02T01:23:09.167Z,102183.31
2023-05-02T01:26:05.171Z,102189.03
2023-05-02T01:28:57.374Z,102184.97
2023-05-02T01:31:26.899Z,102184.34
2023-05-02T01:33:56.120Z,102187.03
2023-05-02T01:36:25.452Z,102187.97
2023-05-02T01:38:52.862Z,102188.81
2023-05-02T01:41:20.909Z,102195.91
2023-05-02T01:43:48.202Z,102195.19
2023-05-02T01:46:15.653Z,102200.41
2023-05-02T01:48:46.731Z,102196.13
2023-05-02T01:51:17.231Z,102207.59
2023-05-02T01:53:46.007Z,102223.19
2023-05-02T01:56:12.730Z,102222.69
2023-05-02T01:58:40.651Z,102228.88
2023-05-02T02:01:10.761Z,102224.81
2023-05-02T02:03:37.304Z,102231.06
2023-05-02T02:06:05.417Z,102221.50
2023-05-02T02:08:31.915Z,102228.44
2023-05-02T02:11:04.359Z,102228.44
2023-05-02T02:13:35.718Z,102217.28
2023-05-02T02:16:05.653Z,102224.22
2023-05-02T02:18:36.973Z,102229.47
2023-05-02T02:21:07.665Z,102238.91
2023-05-02T02:23:36.660Z,102241.63
2023-05-02T02:26:04.854Z,102244.25
2023-05-02T02:28:31.966Z,102248.84
2023-05-02T02:30:58.462Z,102252.56
2023-05-02T02:33:30.171Z,102250.13
2023-05-02T02:36:18.647Z,102258.13
2023-05-02T02:38:56.582Z,102260.00
2023-05-02T02:41:28.091Z,102267.03
2023-05-02T02:44:09.893Z,102266.19
2023-05-02T02:46:56.334Z,102272.38
2023-05-02T02:49:49.628Z,102268.97
2023-05-02T02:52:32.936Z,102274.38
2023-05-02T02:55:17.221Z,102265.78
2023-05-02T02:58:01.965Z,102280.78
2023-05-02T03:00:29.351Z,102283.28
2023-05-02T03:02:56.879Z,102280.69
2023-05-02T03:05:24.026Z,102283.38
2023-05-02T03:07:51.374Z,102289.47
2023-05-02T03:10:17.997Z,102288.63
2023-05-02T03:12:44.360Z,102302.75
2023-05-02T03:15:44.710Z,102300.88
2023-05-02T03:18:11.326Z,102304.34
2023-05-02T03:20:38.085Z,102315.84
2023-05-02T03:23:04.494Z,102303.84
2023-05-02T03:25:30.890Z,102306.47
2023-05-02T03:27:58.086Z,102309.16
2023-05-02T03:30:24.489Z,102307.41
2023-05-02T03:32:50.966Z,102315.44
2023-05-02T03:35:17.416Z,102324.03
2023-05-02T03:37:44.769Z,102318.06
2023-05-02T03:40:11.814Z,102320.81
2023-05-02T03:42:40.078Z,102319.97
2023-05-02T03:45:07.518Z,102334.09
2023-05-02T03:47:34.662Z,102329.69
2023-05-02T03:50:02.096Z,102337.69
2023-05-02T03:52:28.829Z,102338.72
2023-05-02T03:54:55.168Z,102338.91
2023-05-02T03:57:21.802Z,102343.34
2023-05-02T03:59:48.218Z,102345.31
2023-05-02T04:02:14.748Z,102345.22
2023-05-02T04:04:41.259Z,102352.22
2023-05-02T04:07:08.179Z,102354.00
2023-05-02T04:09:34.621Z,102351.47
2023-05-02T04:12:01.397Z,102353.16
2023-05-02T04:14:27.735Z,102356.84
2023-05-02T04:16:54.245Z,102357.88
2023-05-02T04:19:20.699Z,102364.03
2023-05-02T04:21:47.113Z,102363.34
2023-05-02T04:24:13.851Z,102366.97
2023-05-02T04:26:40.552Z,102369.72
2023-05-02T04:29:07.033Z,102377.44
2023-05-02T04:31:33.612Z,102381.91
2023-05-02T04:34:00.063Z,102386.22
2023-05-02T04:36:28.181Z,102393.16
2023-05-02T04:38:54.667Z,102401.94
2023-05-02T04:41:21.604Z,102406.63
2023-05-02T04:43:48.010Z,102413.78
2023-05-02T04:46:16.418Z,102410.78
2023-05-02T04:48:42.865Z,102423.34
2023-05-02T04:51:10.244Z,102420.19
2023-05-02T04:53:37.552Z,102435.78
2023-05-02T04:56:04.108Z,102437.66
2023-05-02T04:58:30.558Z,102437.72
2023-05-02T05:00:57.841Z,102442.72
2023-05-02T05:03:24.735Z,102444.41
2023-05-02T05:05:51.263Z,102444.41
2023-05-02T05:08:17.628Z,102448.81
2023-05-02T05:10:43.984Z,102451.38
2023-05-02T05:13:12.549Z,102451.28
2023-05-02T05:15:39.009Z,102461.69
2023-05-02T05:18:05.668Z,102463.66
2023-05-02T05:20:32.173Z,102470.75
2023-05-02T05:22:58.686Z,102470.00
2023-05-02T05:25:28.072Z,102475.97
2023-05-02T05:27:56.262Z,102477.53
2023-05-02T05:30:22.826Z,102472.53
2023-05-02T05:32:49.269Z,102482.50
2023-05-02T05:35:15.910Z,102482.88
2023-05-02T05:37:42.292Z,102483.66
2023-05-02T05:40:09.254Z,102497.50
2023-05-02T05:42:35.629Z,102506.56
2023-05-02T05:45:02.066Z,102501.28
2023-05-02T05:47:28.886Z,102509.13
2023-05-02T05:49:56.220Z,102513.38
2023-05-02T05:52:22.912Z,102517.03
2023-05-02T05:54:50.057Z,102517.94
2023-05-02T05:57:16.532Z,102530.81
2023-05-02T05:59:42.975Z,102531.53
2023-05-02T06:02:09.517Z,102535.81
2023-05-02T06:04:36.335Z,102539.09
2023-05-02T06:07:02.873Z,102539.00
2023-05-02T06:09:30.224Z,102544.03
2023-05-02T06:11:56.633Z,102549.06
2023-05-02T06:14:23.160Z,102551.31
2023-05-02T06:16:49.852Z,102552.44
2023-05-02T06:19:16.208Z,102556.69
2023-05-02T06:21:42.727Z,102558.09
2023-05-02T06:24:09.159Z,102565.88
2023-05-02T06:26:35.753Z,102564.88
2023-05-02T06:29:02.540Z,102572.28
2023-05-02T06:31:29.121Z,102578.78
2023-05-02T06:33:55.600Z,102576.31
2023-05-02T06:36:22.021Z,102586.66
2023-05-02T06:38:48.903Z,102577.22
2023-05-02T06:41:17.866Z,102584.25
2023-05-02T06:43:44.634Z,102593.66
2023-05-02T06:46:11.104Z,102596.19
2023-05-02T06:48:37.767Z,102604.75
2023-05-02T06:51:04.509Z,102612.47
2023-05-02T06:53:33.018Z,102611.63
2023-05-02T06:55:59.795Z,102615.31
2023-05-02T06:58:26.359Z,102618.13
2023-05-02T07:00:52.791Z,102629.91
2023-05-02T07:03:19.241Z,102643.06
2023-05-02T07:05:45.691Z,102631.09
2023-05-02T07:08:12.443Z,102650.22
2023-05-02T07:10:38.828Z,102642.03
2023-05-02T07:13:05.180Z,102650.00
2023-05-02T07:15:31.579Z,102648.88
2023-05-02T07:17:58.070Z,102648.72
2023-05-02T07:20:24.585Z,102653.53
2023-05-02T07:22:51.340Z,102653.38
2023-05-02T07:25:17.888Z,102657.59
2023-05-02T07:27:44.697Z,102659.53
2023-05-02T07:30:11.774Z,102679.38
2023-05-02T07:32:38.228Z,102671.34
2023-05-02T07:35:04.969Z,102669.53
2023-05-02T07:37:35.417Z,102666.03
2023-05-02T07:40:02.300Z,102677.88
2023-05-02T07:42:30.309Z,102678.00
2023-05-02T07:44:56.687Z,102681.16
2023-05-02T07:47:23.050Z,102676.94
2023-05-02T07:49:54.083Z,102691.44
2023-05-02T07:52:21.242Z,102684.16
2023-05-02T07:54:51.807Z,102687.72
2023-05-02T07:57:19.054Z,102693.56
2023-05-02T07:59:45.475Z,102689.66
2023-05-02T08:02:13.699Z,102697.28
2023-05-02T08:04:41.194Z,102701.84
2023-05-02T08:07:07.748Z,102696.34
2023-05-02T08:09:34.135Z,102698.19
2023-05-02T08:12:03.276Z,102706.59
2023-05-02T08:14:29.785Z,102705.69
2023-05-02T08:16:56.177Z,102701.44
2023-05-02T08:19:22.574Z,102715.88
2023-05-02T08:21:49.128Z,102717.56
2023-05-02T08:24:15.536Z,102712.50
2023-05-02T08:26:41.968Z,102722.69
2023-05-02T08:29:11.446Z,102726.09
2023-05-02T08:31:46.589Z,102724.94
2023-05-02T08:34:13.260Z,102717.13
2023-05-02T08:36:39.644Z,102730.22
2023-05-02T08:39:08.169Z,102734.03
2023-05-02T08:41:34.799Z,102738.25
2023-05-02T08:44:03.085Z,102744.22
2023-05-02T08:46:31.154Z,102739.53
2023-05-02T08:49:01.665Z,102747.72
2023-05-02T08:51:32.613Z,102751.31
2023-05-02T08:54:01.950Z,102752.72
2023-05-02T08:56:28.579Z,102750.66
2023-05-02T08:58:55.226Z,102752.13
2023-05-02T09:01:23.899Z,102756.97
2023-05-02T09:03:50.959Z,102759.91
2023-05-02T09:06:20.762Z,102761.69
2023-05-02T09:08:49.445Z,102762.88
2023-05-02T09:11:17.147Z,102763.53
2023-05-02T09:13:52.008Z,102765.78
2023-05-02T09:16:27.170Z,102759.19
2023-05-02T09:18:59.284Z,102766.19
2023-05-02T09:21:35.430Z,102767.03
2023-05-02T09:24:03.790Z,102765.47
2023-05-02T09:26:34.028Z,102776.59
2023-05-02T09:29:05.353Z,102781.72
2023-05-02T09:31:54.321Z,102769.41
2023-05-02T09:34:21.563Z,102769.41
2023-05-02T09:36:54.611Z,102776.97
2023-05-02T09:39:25.931Z,102784.44
2023-05-02T09:41:52.933Z,102770.66
2023-05-02T09:44:22.933Z,102784.41
2023-05-02T09:46:51.806Z,102786.97
2023-05-02T09:49:19.294Z,102782.88
2023-05-02T09:51:47.349Z,102795.16
2023-05-02T09:54:15.274Z,102795.09
2023-05-02T09:56:56.496Z,102790.88
2023-05-02T09:59:23.937Z,102791.31
2023-05-02T10:01:58.094Z,102786.06
2023-05-02T10:04:26.225Z,102787.75
2023-05-02T10:06:55.384Z,102784.56
2023-05-02T10:09:22.177Z,102791.44
2023-05-02T10:11:54.548Z,102793.59
2023-05-02T10:14:23.367Z,102790.94
2023-05-02T10:17:00.220Z,102801.06
2023-05-02T10:19:45.256Z,102801.78
2023-05-02T10:22:13.322Z,102813.88
2023-05-02T10:24:41.398Z,102819.19
2023-05-02T10:27:08.388Z,102815.22
2023-05-02T10:29:36.146Z,102813.16
2023-05-02T10:32:04.787Z,102814.38
2023-05-02T10:34:33.547Z,102814.97
2023-05-02T10:37:03.088Z,102820.31
2023-05-02T10:39:31.760Z,102829.66
2023-05-02T10:42:00.730Z,102828.03
2023-05-02T10:44:38.621Z,102820.66
2023-05-02T10:47:25.540Z,102824.50
2023-05-02T10:49:54.456Z,102820.13
2023-05-02T10:52:29.207Z,102810.63
2023-05-02T10:55:21.473Z,102810.59
2023-05-02T10:57:59.928Z,102817.72
2023-05-02T11:00:29.398Z,102825.41
2023-05-02T11:02:56.172Z,102820.34
2023-05-02T11:05:25.918Z,102828.81
2023-05-02T11:08:20.189Z,102827.44
2023-05-02T11:10:48.685Z,102829.41
2023-05-02T11:13:15.507Z,102826.72
2023-05-02T11:15:41.816Z,102828.28
2023-05-02T11:18:13.052Z,102819.84
2023-05-02T11:20:43.952Z,102835.44
2023-05-02T11:23:25.656Z,102837.50
2023-05-02T11:25:57.236Z,102834.00
2023-05-02T11:28:48.728Z,102838.50
2023-05-02T11:31:27.371Z,102839.78
2023-05-02T11:33:57.599Z,102838.28
2023-05-02T11:36:34.517Z,102828.72
2023-05-02T11:39:02.620Z,102845.22
2023-05-02T11:41:42.374Z,102838.50
2023-05-02T11:44:08.863Z,102834.59
2023-05-02T11:46:41.438Z,102843.44
2023-05-02T11:49:09.772Z,102843.19
2023-05-02T11:51:37.326Z,102844.66
2023-05-02T11:54:04.197Z,102859.41
2023-05-02T11:56:31.537Z,102853.66
2023-05-02T11:59:08.241Z,102855.22
2023-05-02T12:01:34.721Z,102859.66
2023-05-02T12:04:05.607Z,102854.19
2023-05-02T12:06:32.292Z,102865.09
2023-05-02T12:09:19.125Z,102862.38
2023-05-02T12:11:45.680Z,102866.28
2023-05-02T12:14:12.719Z,102860.22
2023-05-02T12:16:39.323Z,102860.94
2023-05-02T12:19:07.037Z,102879.81
2023-05-02T12:21:33.868Z,102882.38
2023-05-02T12:24:03.601Z,102889.06
2023-05-02T12:26:31.777Z,102884.94
2023-05-02T12:28:59.015Z,102887.47
2023-05-02T12:31:27.228Z,102888.84
2023-05-02T12:33:57.346Z,102880.38
2023-05-02T12:36:24.397Z,102892.06
2023-05-02T12:38:53.192Z,102891.53
2023-05-02T12:41:36.350Z,102893.50
2023-05-02T12:44:03.333Z,102890.91
2023-05-02T12:46:31.560Z,102901.81
2023-05-02T12:49:12.485Z,102900.66
2023-05-02T12:51:41.404Z,102910.72
2023-05-02T12:54:07.960Z,102914.50
2023-05-02T12:56:41.681Z,102912.81
2023-05-02T12:59:08.349Z,102910.19
2023-05-02T13:01:35.582Z,102914.00
2023-05-02T13:04:02.464Z,102916.66
2023-05-02T13:06:28.940Z,102909.44
2023-05-02T13:08:55.397Z,102905.63
2023-05-02T13:11:21.797Z,102901.41
2023-05-02T13:13:48.398Z,102914.63
2023-05-02T13:16:14.827Z,102897.34
2023-05-02T13:18:41.895Z,102902.50
2023-05-02T13:21:08.371Z,102908.19
2023-05-02T13:23:34.851Z,102915.16
2023-05-02T13:26:01.279Z,102910.72
2023-05-02T13:28:29.085Z,102910.06
2023-05-02T13:30:55.583Z,102912.16
2023-05-02T13:33:22.079Z,102918.41
2023-05-02T13:35:48.607Z,102909.53
2023-05-02T13:38:15.027Z,102919.97
2023-05-02T13:40:41.542Z,102920.75
2023-05-02T13:43:07.932Z,102917.44
2023-05-02T13:45:34.457Z,102914.06
2023-05-02T13:48:01.040Z,102916.84
2023-05-02T13:50:27.446Z,102914.19
2023-05-02T13:52:53.877Z,102917.44
2023-05-02T13:55:20.366Z,102917.19
2023-05-02T13:57:46.954Z,102920.50
2023-05-02T14:00:13.974Z,102924.28
2023-05-02T14:02:40.597Z,102928.72
2023-05-02T14:05:07.762Z,102933.03
2023-05-02T14:07:34.302Z,102920.75
2023-05-02T14:10:01.104Z,102928.69
2023-05-02T14:12:28.295Z,102935.78
2023-05-02T14:14:54.758Z,102927.31
2023-05-02T14:17:21.619Z,102925.91
2023-05-02T14:19:48.074Z,102931.09
2023-05-02T14:22:14.436Z,102920.59
2023-05-02T14:24:41.010Z,102919.69
2023-05-02T14:27:12.866Z,102921.34
2023-05-02T14:29:40.005Z,102922.22
2023-05-02T14:32:06.483Z,102921.66
2023-05-02T14:34:32.984Z,102921.97
2023-05-02T14:36:59.412Z,102923.13
2023-05-02T14:39:27.416Z,102935.38
2023-05-02T14:41:53.889Z,102935.72
2023-05-02T14:44:20.593Z,102929.25
2023-05-02T14:46:47.001Z,102939.31
2023-05-02T14:49:13.392Z,102943.94
2023-05-02T14:51:39.990Z,102935.81
2023-05-02T14:54:07.176Z,102929.63
2023-05-02T14:56:33.672Z,102933.31
2023-05-02T14:59:00.141Z,102928.84
2023-05-02T15:01:26.655Z,102932.03
2023-05-02T15:04:05.967Z,102935.13
2023-05-02T15:06:35.621Z,102932.44
2023-05-02T15:09:02.664Z,102925.53
2023-05-02T15:11:29.075Z,102920.44
2023-05-02T15:13:57.501Z,102918.34
2023-05-02T15:16:26.823Z,102921.22
2023-05-02T15:18:53.646Z,102917.56
2023-05-02T15:21:20.125Z,102924.94
2023-05-02T15:23:47.195Z,102915.88
2023-05-02T15:26:13.678Z,102929.13
2023-05-02T15:28:40.729Z,102924.66
2023-05-02T15:31:07.255Z,102924.09
2023-05-02T15:33:33.832Z,102921.91
2023-05-02T15:36:00.600Z,102916.22
2023-05-02T15:38:27.415Z,102917.56
2023-05-02T15:40:55.592Z,102923.25
2023-05-02T15:43:22.420Z,102919.81
2023-05-02T15:45:57.153Z,102919.69
2023-05-02T15:48:26.848Z,102927.34
2023-05-02T15:50:53.374Z,102924.38
2023-05-02T15:53:22.863Z,102928.94
2023-05-02T15:55:50.922Z,102928.06
2023-05-02T15:58:18.729Z,102926.34
2023-05-02T16:00:46.761Z,102931.22
2023-05-02T16:03:13.569Z,102923.16
2023-05-02T16:05:40.065Z,102931.09
2023-05-02T16:08:06.577Z,102936.31
2023-05-02T16:10:33.082Z,102937.69
2023-05-02T16:12:59.557Z,102938.13
2023-05-02T16:15:26.490Z,102936.53
2023-05-02T16:17:52.993Z,102926.97
2023-05-02T16:20:19.732Z,102927.41
2023-05-02T16:22:47.660Z,102926.91
2023-05-02T16:25:16.280Z,102934.41
2023-05-02T16:27:43.142Z,102939.34
2023-05-02T16:30:10.101Z,102950.06
2023-05-02T16:32:39.786Z,102950.41
2023-05-02T16:35:08.231Z,102947.47
2023-05-02T16:37:35.250Z,102945.25
2023-05-02T16:40:02.678Z,102944.31
2023-05-02T16:42:29.580Z,102933.13
2023-05-02T16:44:56.415Z,102933.44
2023-05-02T16:47:24.154Z,102937.38
2023-05-02T16:49:58.754Z,102941.34
2023-05-02T16:52:26.435Z,102940.34
2023-05-02T16:54:53.221Z,102943.25
2023-05-02T16:57:21.026Z,102942.13
2023-05-02T16:59:49.226Z,102942.59
2023-05-02T17:02:16.479Z,102951.53
2023-05-02T17:04:43.562Z,102947.66
2023-05-02T17:07:13.246Z,102942.66
2023-05-02T17:09:41.321Z,102951.03
2023-05-02T17:12:10.290Z,102945.47
2023-05-02T17:14:38.553Z,102954.00
2023-05-02T17:17:06.590Z,102957.81
2023-05-02T17:19:33.270Z,102957.97
2023-05-02T17:22:00.248Z,102954.84
2023-05-02T17:24:28.274Z,102955.72
2023-05-02T17:26:54.697Z,102957.81
2023-05-02T17:29:21.115Z,102951.69
2023-05-02T17:31:47.526Z,102952.53
2023-05-02T17:34:13.898Z,102945.69
2023-05-02T17:36:42.050Z,102952.81
2023-05-02T17:39:10.215Z,102949.75
2023-05-02T17:41:37.081Z,102951.72
2023-05-02T17:44:04.932Z,102967.25
2023-05-02T17:46:32.510Z,102963.44
2023-05-02T17:48:59.985Z,102964.44
2023-05-02T17:51:27.090Z,102968.28
2023-05-02T17:53:53.801Z,102973.44
2023-05-02T17:56:20.960Z,102970.34
2023-05-02T17:58:47.500Z,102976.19
2023-05-02T18:01:14.391Z,102972.00
2023-05-02T18:03:41.087Z,102969.63
2023-05-02T18:06:08.095Z,102971.44
2023-05-02T18:08:34.807Z,102969.69
2023-05-02T18:11:02.055Z,102980.41
2023-05-02T18:13:28.537Z,102991.00
2023-05-02T18:15:56.766Z,102985.22
2023-05-02T18:18:23.690Z,102989.34
2023-05-02T18:20:50.171Z,102982.88
2023-05-02T18:23:17.015Z,102989.72
2023-05-02T18:25:43.942Z,102980.16
2023-05-02T18:28:10.559Z,102990.28
2023-05-02T18:30:37.922Z,102988.78
2023-05-02T18:33:06.295Z,102986.53
2023-05-02T18:35:33.283Z,102994.53
2023-05-02T18:37:59.887Z,102987.25
2023-05-02T18:40:26.490Z,102994.44
2023-05-02T18:42:53.128Z,102998.19
2023-05-02T18:45:19.699Z,103000.41
2023-05-02T18:47:46.366Z,102998.91
2023-05-02T18:50:13.609Z,102999.97
2023-05-02T18:52:42.081Z,102998.28
2023-05-02T18:55:08.532Z,103001.53
2023-05-02T18:57:34.946Z,103003.88
2023-05-02T19:00:01.544Z,103000.72
2023-05-02T19:02:28.395Z,103004.41
2023-05-02T19:04:55.339Z,103009.53
2023-05-02T19:07:22.797Z,103016.47
2023-05-02T19:09:49.195Z,103011.38
2023-05-02T19:12:15.818Z,103013.25
2023-05-02T19:14:42.475Z,103018.72
2023-05-02T19:17:08.988Z,103009.81
2023-05-02T19:19:35.416Z,103018.81
2023-05-02T19:22:01.842Z,103022.50
2023-05-02T19:24:28.493Z,103023.78
2023-05-02T19:26:55.076Z,103022.50
2023-05-02T19:29:21.499Z,103031.59
2023-05-02T19:31:48.106Z,103021.47
2023-05-02T19:34:14.671Z,103028.47
2023-05-02T19:36:41.136Z,103028.44
2023-05-02T19:39:07.923Z,103030.22
2023-05-02T19:41:34.539Z,103021.94
2023-05-02T19:44:00.992Z,103033.50
2023-05-02T19:46:27.558Z,103023.16
2023-05-02T19:48:54.035Z,103040.69
2023-05-02T19:51:25.325Z,103038.44
2023-05-02T19:53:53.081Z,103039.44
2023-05-02T19:56:21.555Z,103037.81
2023-05-02T19:58:48.061Z,103046.84
2023-05-02T20:01:14.899Z,103040.13
2023-05-02T20:03:41.539Z,103035.09
2023-05-02T20:06:08.056Z,103047.31
2023-05-02T20:08:34.691Z,103047.59
2023-05-02T20:11:01.041Z,103049.34
2023-05-02T20:13:27.560Z,103058.13
2023-05-02T20:15:54.113Z,103065.25
2023-05-02T20:18:20.823Z,103069.66
2023-05-02T20:20:47.341Z,103069.97
2023-05-02T20:23:14.093Z,103074.28
2023-05-02T20:25:42.310Z,103060.53
2023-05-02T20:28:09.249Z,103058.00
2023-05-02T20:30:35.768Z,103068.59
2023-05-02T20:33:14.026Z,103072.06
2023-05-02T20:35:41.970Z,103074.78
2023-05-02T20:38:08.475Z,103079.28
2023-05-02T20:40:37.728Z,103075.13
2023-05-02T20:43:05.397Z,103077.75
2023-05-02T20:45:31.831Z,103081.38
2023-05-02T20:47:58.362Z,103088.53
2023-05-02T20:50:24.805Z,103092.09
2023-05-02T20:52:51.296Z,103092.34
2023-05-02T20:55:18.634Z,103091.72
2023-05-02T20:57:45.744Z,103097.06
2023-05-02T21:00:13.657Z,103095.63
2023-05-02T21:02:40.174Z,103090.50
2023-05-02T21:05:07.181Z,103088.94
2023-05-02T21:07:33.638Z,103089.03
2023-05-02T21:10:00.436Z,103085.69
2023-05-02T21:12:27.203Z,103091.94
2023-05-02T21:14:53.576Z,103086.94
2023-05-02T21:17:19.940Z,103087.91
2023-05-02T21:19:46.406Z,103087.97
2023-05-02T21:22:12.767Z,103088.16
2023-05-02T21:24:39.169Z,103090.84
2023-05-02T21:27:05.602Z,103087.50
2023-05-02T21:29:32.016Z,103089.44
2023-05-02T21:31:58.459Z,103088.78
2023-05-02T21:34:24.916Z,103085.34
2023-05-02T21:36:52.498Z,103086.41
2023-05-02T21:39:18.848Z,103075.31
2023-05-02T21:41:45.252Z,103084.94
2023-05-02T21:44:13.791Z,103078.97
2023-05-02T21:46:40.891Z,103083.41
2023-05-02T21:49:08.040Z,103085.34
2023-05-02T21:51:34.528Z,103083.75
2023-05-02T21:54:00.914Z,103089.09
2023-05-02T21:56:27.339Z,103093.47
2023-05-02T21:58:53.714Z,103090.13
2023-05-02T22:01:20.094Z,103088.34
2023-05-02T22:03:46.611Z,103095.28
2023-05-02T22:06:13.440Z,103090.97
2023-05-02T22:08:40.158Z,103078.84
2023-05-02T22:11:09.305Z,103079.81
2023-05-02T22:13:36.701Z,103081.63
2023-05-02T22:16:03.507Z,103077.44
2023-05-02T22:18:29.944Z,103062.75
2023-05-02T22:20:58.451Z,103069.84
2023-05-02T22:23:24.904Z,103068.31
2023-05-02T22:25:51.362Z,103067.56
2023-05-02T22:28:17.906Z,103063.31
2023-05-02T22:30:44.360Z,103061.72
2023-05-02T22:33:11.964Z,103065.31
2023-05-02T22:35:40.823Z,103066.22
2023-05-02T22:38:10.851Z,103070.63
2023-05-02T22:40:37.261Z,103065.53
2023-05-02T22:43:03.997Z,103063.94
2023-05-02T22:45:30.449Z,103064.94
2023-05-02T22:47:57.008Z,103062.41
2023-05-02T22:50:24.570Z,103060.75
2023-05-02T22:52:51.110Z,103069.44
2023-05-02T22:55:17.534Z,103069.56
2023-05-02T22:57:44.020Z,103069.75
2023-05-02T23:00:11.244Z,103074.22
2023-05-02T23:02:38.071Z,103069.03
2023-05-02T23:05:06.476Z,103073.41
2023-05-02T23:07:33.312Z,103072.63
2023-05-02T23:09:59.779Z,103077.09
2023-05-02T23:12:26.486Z,103085.03
2023-05-02T23:14:53.115Z,103081.66
2023-05-02T23:17:19.579Z,103086.06
2023-05-02T23:19:45.955Z,103089.56
2023-05-02T23:22:12.431Z,103092.22
2023-05-02T23:24:38.811Z,103085.34
2023-05-02T23:27:07.472Z,103090.59
2023-05-02T23:29:33.856Z,103085.44
2023-05-02T23:32:00.641Z,103075.94
2023-05-02T23:34:27.407Z,103085.66
2023-05-02T23:36:53.991Z,103093.50
2023-05-02T23:39:20.457Z,103099.72
2023-05-02T23:41:46.975Z,103102.38
2023-05-02T23:44:13.383Z,103107.66
2023-05-02T23:46:39.868Z,103112.91
2023-05-02T23:49:06.323Z,103113.88
2023-05-02T23:51:32.932Z,103113.06
2023-05-02T23:53:59.519Z,103118.28
2023-05-02T23:56:26.931Z,103121.00
2023-05-02T23:58:53.389Z,103124.53
